Time;durP1;ratioP1;P1;durP2;ratioP2;P2;SDS_P1;SDS_P2;PMS_P1;PMS_P2;Temp;Humidity;BMP_temperature;BMP_pressure;BME280_temperature;BME280_humidity;BME280_pressure;Samples;Min_cycle;Max_cycle;Signal;HPM_P1;HPM_P2
2024/01/31 00:01:18;;;;;;;;;;;;;;;-155.54;100.00;57697.75;4991046;28;20462;-76
2024/01/31 00:03:43;;;;;;;;;;;;;;;-155.54;100.00;57697.75;4994258;28;19937;-76
2024/01/31 00:06:10;;;;;;;;;;;;;;;-155.54;100.00;57697.75;4975909;28;20296;-76
2024/01/31 00:08:35;;;;;;;;;;;;;;;-155.54;100.00;57697.75;4969338;28;20550;-76
2024/01/31 00:11:00;;;;;;;;;;;;;;;-155.54;100.00;57697.75;4991453;28;19923;-76
2024/01/31 00:13:26;;;;;;;;;;;;;;;-155.54;100.00;57697.75;4994986;28;19921;-76
2024/01/31 00:15:51;;;;;;;;;;;;;;;-155.54;100.00;57697.75;5000561;28;19964;-76
2024/01/31 00:18:16;;;;;;;;;;;;;;;-155.54;100.00;57697.75;4995957;28;19925;-76
2024/01/31 00:20:42;;;;;;;;;;;;;;;-155.54;100.00;57697.75;4980371;28;19969;-76
2024/01/31 00:23:07;;;;;;;;;;;;;;;-155.54;100.00;57697.75;4982310;28;19980;-75
2024/01/31 00:25:32;;;;;;;;;;;;;;;-155.54;100.00;57697.75;4993247;28;19969;-77
2024/01/31 00:27:58;;;;;;;;;;;;;;;-155.54;100.00;57697.75;4995175;28;19979;-76
2024/01/31 00:30:23;;;;;;;;;;;;;;;-155.54;100.00;57697.75;4988876;28;20560;-76
2024/01/31 00:32:48;;;;;;;;;;;;;;;-155.54;100.00;57697.75;4999743;28;20009;-76
2024/01/31 00:35:13;;;;;;;;;;;;;;;-155.54;100.00;57697.75;4997966;28;19922;-76
2024/01/31 00:37:39;;;;;;;;;;;;;;;-155.54;100.00;57697.75;4998976;28;20438;-75
2024/01/31 00:40:05;;;;;;;;;;;;;;;-155.54;100.00;57697.75;4996978;28;19925;-75
2024/01/31 00:42:31;;;;;;;;;;;;;;;-155.54;100.00;57697.75;4974367;28;19932;-75
2024/01/31 00:44:56;;;;;;;;;;;;;;;-155.54;100.00;57697.75;4991607;28;19918;-75
2024/01/31 00:47:21;;;;;;;;;;;;;;;-155.54;100.00;57697.75;4990279;28;19999;-75
2024/01/31 00:49:47;;;;;;;;;;;;;;;-155.54;100.00;57697.75;4999432;28;20489;-75
2024/01/31 00:52:12;;;;;;;;;;;;;;;-155.54;100.00;57697.75;4979030;28;20020;-76
2024/01/31 00:54:37;;;;;;;;;;;;;;;-155.54;100.00;57697.75;4999011;28;19953;-75
2024/01/31 00:57:02;;;;;;;;;;;;;;;-155.54;100.00;57697.75;4995277;28;19965;-75
2024/01/31 00:59:28;;;;;;;;;;;;;;;-155.54;100.00;57697.75;4973499;28;20052;-75
2024/01/31 01:01:53;;;;;;;;;;;;;;;-155.54;100.00;57697.75;4981526;28;19979;-76
2024/01/31 01:04:18;;;;;;;;;;;;;;;-155.54;100.00;57697.75;4999542;28;20204;-76
2024/01/31 01:06:43;;;;;;;;;;;;;;;-155.54;100.00;57697.75;4993142;28;19937;-75
2024/01/31 01:09:09;;;;;;;;;;;;;;;-155.54;100.00;57697.75;4999488;28;20420;-75
2024/01/31 01:11:34;;;;;;;;;;;;;;;-155.54;100.00;57697.75;4997725;28;19937;-76
2024/01/31 01:13:59;;;;;;;;;;;;;;;-155.54;100.00;57697.75;4992641;28;19922;-75
2024/01/31 01:16:24;;;;;;;;;;;;;;;-155.54;100.00;57697.75;4995688;28;19921;-75
2024/01/31 01:18:50;;;;;;;;;;;;;;;-155.54;100.00;57697.75;4995828;28;20587;-75
2024/01/31 01:21:15;;;;;;;;;;;;;;;-155.54;100.00;57697.75;4985488;28;19926;-75
2024/01/31 01:23:40;;;;;;;;;;;;;;;-155.54;100.00;57697.75;4999202;28;19987;-75
2024/01/31 01:26:05;;;;;;;;;;;;;;;-155.54;100.00;57697.75;4998195;28;19952;-75
2024/01/31 01:28:31;;;;;;;;;;;;;;;-155.54;100.00;57697.75;4987831;28;19959;-75
2024/01/31 01:30:56;;;;;;;;;;;;;;;-155.54;100.00;57697.75;4994231;28;19922;-75
2024/01/31 01:33:21;;;;;;;;;;;;;;;-155.54;100.00;57697.75;4995513;28;19956;-76
2024/01/31 01:35:47;;;;;;;;;;;;;;;-155.54;100.00;57697.75;4998710;28;20108;-76
2024/01/31 01:38:12;;;;;;;;;;;;;;;-155.54;100.00;57697.75;4996803;28;19929;-76
2024/01/31 01:40:44;;;;;;;;;;;;;;;-155.54;100.00;57697.75;4996426;28;20008;-75
2024/01/31 01:43:18;;;;;;;;;;;;;;;-155.54;100.00;57697.75;4992316;28;19930;-75
2024/01/31 01:45:44;;;;;;;;;;;;;;;-155.54;100.00;57697.75;4979058;28;19922;-76
2024/01/31 01:48:09;;;;;;;;;;;;;;;-155.54;100.00;57697.75;4993507;28;19972;-76
2024/01/31 01:50:35;;;;;;;;;;;;;;;-155.54;100.00;57697.75;4966061;28;19922;-76
2024/01/31 01:53:00;;;;;;;;;;;;;;;-155.54;100.00;57697.75;4965661;28;20457;-75
2024/01/31 01:55:25;;;;;;;;;;;;;;;-155.54;100.00;57697.75;4976407;28;20022;-76
2024/01/31 01:57:50;;;;;;;;;;;;;;;-155.54;100.00;57697.75;4988915;28;19937;-75
2024/01/31 02:00:16;;;;;;;;;;;;;;;-155.54;100.00;57697.75;4977395;28;19917;-75
2024/01/31 02:02:41;;;;;;;;;;;;;;;-155.54;100.00;57697.75;4974165;28;20036;-76
2024/01/31 02:05:07;;;;;;;;;;;;;;;-155.54;100.00;57697.75;4997517;28;19925;-75
2024/01/31 02:07:32;;;;;;;;;;;;;;;-155.54;100.00;57697.75;4970659;28;19921;-75
2024/01/31 02:09:59;;;;;;;;;;;;;;;-155.54;100.00;57697.75;4979147;28;19951;-76
2024/01/31 02:12:24;;;;;;;;;;;;;;;-155.54;100.00;57697.75;4985669;28;20348;-76
2024/01/31 02:14:50;;;;;;;;;;;;;;;-155.54;100.00;57697.75;4992532;28;19926;-75
2024/01/31 02:17:15;;;;;;;;;;;;;;;-155.54;100.00;57697.75;4986796;28;20018;-76
2024/01/31 02:19:41;;;;;;;;;;;;;;;-155.54;100.00;57697.75;4979877;28;20349;-74
2024/01/31 02:22:07;;;;;;;;;;;;;;;-155.54;100.00;57697.75;4979914;28;19960;-75
2024/01/31 02:24:32;;;;;;;;;;;;;;;-155.54;100.00;57697.75;4996019;28;19921;-75
2024/01/31 02:26:57;;;;;;;;;;;;;;;-155.54;100.00;57697.75;4987262;28;20509;-75
2024/01/31 02:29:23;;;;;;;;;;;;;;;-155.54;100.00;57697.75;4992813;28;20455;-75
2024/01/31 02:31:48;;;;;;;;;;;;;;;-155.54;100.00;57697.75;4978343;28;19944;-74
2024/01/31 02:34:13;;;;;;;;;;;;;;;-155.54;100.00;57697.75;4995857;28;19929;-74
2024/01/31 02:36:39;;;;;;;;;;;;;;;-155.54;100.00;57697.75;4995598;28;19921;-74
2024/01/31 02:39:04;;;;;;;;;;;;;;;-155.54;100.00;57697.75;4988536;28;20000;-75
2024/01/31 02:41:29;;;;;;;;;;;;;;;-155.54;100.00;57697.75;4977073;28;19930;-74
2024/01/31 02:43:54;;;;;;;;;;;;;;;-155.54;100.00;57697.75;4977554;28;19925;-75
2024/01/31 02:46:20;;;;;;;;;;;;;;;-155.54;100.00;57697.75;4997207;28;19963;-74
2024/01/31 02:48:46;;;;;;;;;;;;;;;-155.54;100.00;57697.75;4997056;28;20374;-75
2024/01/31 02:51:11;;;;;;;;;;;;;;;-155.54;100.00;57697.75;4971965;28;20024;-74
2024/01/31 02:53:36;;;;;;;;;;;;;;;-155.54;100.00;57697.75;4997731;28;20015;-74
2024/01/31 02:56:02;;;;;;;;;;;;;;;-155.54;100.00;57697.75;4998306;28;20291;-74
2024/01/31 02:58:27;;;;;;;;;;;;;;;-155.54;100.00;57697.75;4976477;28;19929;-75
2024/01/31 03:00:53;;;;;;;;;;;;;;;-155.54;100.00;57697.75;4979780;28;20370;-75
2024/01/31 03:03:18;;;;;;;;;;;;;;;-155.54;100.00;57697.75;4998424;28;19925;-75
2024/01/31 03:05:43;;;;;;;;;;;;;;;-155.54;100.00;57697.75;4997268;28;20279;-74
2024/01/31 03:08:09;;;;;;;;;;;;;;;-155.54;100.00;57697.75;4974504;28;19949;-75
2024/01/31 03:10:34;;;;;;;;;;;;;;;-155.54;100.00;57697.75;4997170;28;19926;-75
2024/01/31 03:12:59;;;;;;;;;;;;;;;-155.54;100.00;57697.75;4993821;28;19936;-75
2024/01/31 03:15:24;;;;;;;;;;;;;;;-155.54;100.00;57697.75;4997234;28;19944;-75
2024/01/31 03:17:50;;;;;;;;;;;;;;;-155.54;100.00;57697.75;4997648;28;19925;-74
2024/01/31 03:20:15;;;;;;;;;;;;;;;-155.54;100.00;57697.75;5001404;28;19955;-75
2024/01/31 03:22:40;;;;;;;;;;;;;;;-155.54;100.00;57697.75;4999781;28;20404;-74
2024/01/31 03:25:06;;;;;;;;;;;;;;;-155.54;100.00;57697.75;4980852;28;19925;-74
2024/01/31 03:27:32;;;;;;;;;;;;;;;-155.54;100.00;57697.75;4996897;28;19926;-75
2024/01/31 03:30:01;;;;;;;;;;;;;;;-155.54;100.00;57697.75;4971576;28;19926;-76
2024/01/31 03:32:27;;;;;;;;;;;;;;;-155.54;100.00;57697.75;5002034;28;20153;-75
2024/01/31 03:34:52;;;;;;;;;;;;;;;-155.54;100.00;57697.75;4986655;28;19917;-75
2024/01/31 03:37:17;;;;;;;;;;;;;;;-155.54;100.00;57697.75;5003819;28;19928;-78
2024/01/31 03:39:42;;;;;;;;;;;;;;;-155.54;100.00;57697.75;5004234;28;19925;-76
2024/01/31 03:42:08;;;;;;;;;;;;;;;-155.54;100.00;57697.75;4979109;28;20378;-76
2024/01/31 03:44:33;;;;;;;;;;;;;;;-155.54;100.00;57697.75;5003971;28;19960;-76
2024/01/31 06:00:58;;;;;;;;;;;;;;;-155.54;100.00;57697.75;4996305;28;20397;-75
2024/01/31 06:03:25;;;;;;;;;;;;;;;-155.54;100.00;57697.75;4999209;28;19925;-75
2024/01/31 06:05:50;;;;;;;;;;;;;;;-155.54;100.00;57697.75;4995851;28;19961;-75
2024/01/31 06:08:18;;;;;;;;;;;;;;;-155.54;100.00;57697.75;4982811;28;20354;-76
2024/01/31 06:10:43;;;;;;;;;;;;;;;-155.54;100.00;57697.75;4992938;28;19999;-75
2024/01/31 06:13:08;;;;;;;;;;;;;;;-155.54;100.00;57697.75;4980403;28;20626;-75
2024/01/31 06:15:34;;;;;;;;;;;;;;;-155.54;100.00;57697.75;4998521;28;19957;-76
2024/01/31 06:17:59;;;;;;;;;;;;;;;-155.54;100.00;57697.75;4996742;28;20133;-76
2024/01/31 06:20:25;;;;;;;;;;;;;;;-155.54;100.00;57697.75;4997974;28;19980;-76
2024/01/31 06:22:50;;;;;;;;;;;;;;;-155.54;100.00;57697.75;4998835;28;20793;-76
2024/01/31 06:25:15;;;;;;;;;;;;;;;-155.54;100.00;57697.75;4997469;28;19925;-76
2024/01/31 06:27:41;;;;;;;;;;;;;;;-155.54;100.00;57697.75;4977452;28;20432;-76
2024/01/31 06:30:06;;;;;;;;;;;;;;;-155.54;100.00;57697.75;4995211;28;19980;-76
2024/01/31 06:32:34;;;;;;;;;;;;;;;-155.54;100.00;57697.75;4991199;28;19937;-76
2024/01/31 06:34:59;;;;;;;;;;;;;;;-155.54;100.00;57697.75;4993828;28;19921;-76
2024/01/31 06:37:25;;;;;;;;;;;;;;;-155.54;100.00;57697.75;4997362;28;19948;-75
2024/01/31 06:39:50;;;;;;;;;;;;;;;-155.54;100.00;57697.75;4998099;28;19932;-76
2024/01/31 06:42:15;;;;;;;;;;;;;;;-155.54;100.00;57697.75;4977713;28;20177;-76
2024/01/31 06:44:41;;;;;;;;;;;;;;;-155.54;100.00;57697.75;4995918;28;19969;-76
2024/01/31 06:47:06;;;;;;;;;;;;;;;-155.54;100.00;57697.75;4980616;28;20000;-76
2024/01/31 06:49:31;;;;;;;;;;;;;;;-155.54;100.00;57697.75;4996177;28;20368;-76
2024/01/31 06:51:57;;;;;;;;;;;;;;;-155.54;100.00;57697.75;4999424;28;19925;-75
2024/01/31 06:54:22;;;;;;;;;;;;;;;-155.54;100.00;57697.75;4975666;28;19932;-76
2024/01/31 06:56:47;;;;;;;;;;;;;;;-155.54;100.00;57697.75;5001588;28;20008;-76
2024/01/31 06:59:12;;;;;;;;;;;;;;;-155.54;100.00;57697.75;4999601;28;19914;-76
2024/01/31 07:01:38;;;;;;;;;;;;;;;-155.54;100.00;57697.75;4967081;28;20382;-77
2024/01/31 07:04:03;;;;;;;;;;;;;;;-155.54;100.00;57697.75;4967072;28;19917;-77
2024/01/31 07:06:28;;;;;;;;;;;;;;;-155.54;100.00;57697.75;4980759;28;19930;-77
2024/01/31 07:08:53;;;;;;;;;;;;;;;-155.54;100.00;57697.75;4981068;28;19932;-77
2024/01/31 07:11:19;;;;;;;;;;;;;;;-155.54;100.00;57697.75;4983261;28;20386;-77
2024/01/31 07:13:44;;;;;;;;;;;;;;;-155.54;100.00;57697.75;4976402;28;19922;-77
2024/01/31 07:16:09;;;;;;;;;;;;;;;-155.54;100.00;57697.75;4982299;28;19926;-77
2024/01/31 07:18:44;;;;;;;;;;;;;;;-155.54;100.00;57697.75;4945527;28;19952;-77
2024/01/31 07:21:09;;;;;;;;;;;;;;;-155.54;100.00;57697.75;4965330;28;19952;-77
2024/01/31 07:23:35;;;;;;;;;;;;;;;-155.54;100.00;57697.75;4983885;28;20189;-77
2024/01/31 07:26:00;;;;;;;;;;;;;;;-155.54;100.00;57697.75;4982769;28;19932;-77
2024/01/31 07:28:25;;;;;;;;;;;;;;;-155.54;100.00;57697.75;4974235;28;19929;-77
2024/01/31 07:30:52;;;;;;;;;;;;;;;-155.54;100.00;57697.75;4974973;28;19965;-77
2024/01/31 07:33:17;;;;;;;;;;;;;;;-155.54;100.00;57697.75;4983727;28;19926;-78
2024/01/31 07:35:42;;;;;;;;;;;;;;;-155.54;100.00;57697.75;4949803;28;19918;-77
2024/01/31 07:38:07;;;;;;;;;;;;;;;-155.54;100.00;57697.75;4977094;28;19932;-76
2024/01/31 07:40:33;;;;;;;;;;;;;;;-155.54;100.00;57697.75;4957635;28;19926;-77
2024/01/31 07:42:58;;;;;;;;;;;;;;;-155.54;100.00;57697.75;4943253;28;20425;-77
2024/01/31 07:45:24;;;;;;;;;;;;;;;-155.54;100.00;57697.75;4961395;28;19925;-77
2024/01/31 07:47:49;;;;;;;;;;;;;;;-155.54;100.00;57697.75;4982767;28;19922;-77
2024/01/31 07:50:14;;;;;;;;;;;;;;;-155.54;100.00;57697.75;4973839;28;19922;-77
2024/01/31 07:52:40;;;;;;;;;;;;;;;-155.54;100.00;57697.75;4982432;28;19930;-77
2024/01/31 07:55:06;;;;;;;;;;;;;;;-155.54;100.00;57697.75;4981352;28;20029;-77
2024/01/31 08:03:41;;;;;;;;;;;;;;;-155.54;100.00;57697.75;4997287;28;19980;-77
2024/01/31 08:06:06;;;;;;;;;;;;;;;-155.54;100.00;57697.75;4974024;28;20027;-77
2024/01/31 08:08:32;;;;;;;;;;;;;;;-155.54;100.00;57697.75;4976003;28;19926;-76
2024/01/31 08:10:59;;;;;;;;;;;;;;;-155.54;100.00;57697.75;4997955;28;19925;-75
2024/01/31 08:13:25;;;;;;;;;;;;;;;-155.54;100.00;57697.75;4990917;28;19968;-75
2024/01/31 11:18:59;;;;;;;;;;;;;;;-155.54;100.00;57697.75;4992615;28;20220;-65
2024/01/31 11:21:24;;;;;;;;;;;;;;;-155.54;100.00;57697.75;4997181;28;20726;-66
2024/01/31 11:23:49;;;;;;;;;;;;;;;-155.54;100.00;57697.75;4998985;28;20061;-66
2024/01/31 11:26:14;;;;;;;;;;;;;;;-155.54;100.00;57697.75;4974284;28;19960;-65
2024/01/31 11:28:43;;;;;;;;;;;;;;;-155.54;100.00;57697.75;4997454;28;20108;-66
2024/01/31 11:31:08;;;;;;;;;;;;;;;-155.54;100.00;57697.75;4993360;28;19925;-66
2024/01/31 11:33:33;;;;;;;;;;;;;;;-155.54;100.00;57697.75;4986288;28;20334;-65
2024/01/31 11:35:59;;;;;;;;;;;;;;;-155.54;100.00;57697.75;4999119;28;20437;-65
2024/01/31 11:38:24;;;;;;;;;;;;;;;-155.54;100.00;57697.75;4999682;28;19926;-65
2024/01/31 11:40:50;;;;;;;;;;;;;;;-155.54;100.00;57697.75;4996614;28;20016;-66
2024/01/31 11:43:17;;;;;;;;;;;;;;;-155.54;100.00;57697.75;5001081;28;20015;-66
2024/01/31 11:45:42;;;;;;;;;;;;;;;-155.54;100.00;57697.75;4998899;28;19921;-66
2024/01/31 11:48:07;;;;;;;;;;;;;;;-155.54;100.00;57697.75;5000143;28;19933;-66
2024/01/31 11:50:33;;;;;;;;;;;;;;;-155.54;100.00;57697.75;4999324;28;19925;-65
2024/01/31 11:52:58;;;;;;;;;;;;;;;-155.54;100.00;57697.75;4994700;28;19926;-66
2024/01/31 11:55:24;;;;;;;;;;;;;;;-155.54;100.00;57697.75;4978964;28;19957;-66
2024/01/31 11:57:50;;;;;;;;;;;;;;;-155.54;100.00;57697.75;4999542;28;19929;-66
2024/01/31 12:00:16;;;;;;;;;;;;;;;-155.54;100.00;57697.75;4995307;28;19968;-66
2024/01/31 12:02:41;;;;;;;;;;;;;;;-155.54;100.00;57697.75;4999825;28;20538;-66
2024/01/31 12:05:06;;;;;;;;;;;;;;;-155.54;100.00;57697.75;5000065;28;19922;-66
2024/01/31 12:07:31;;;;;;;;;;;;;;;-155.54;100.00;57697.75;4998481;28;20728;-66
2024/01/31 12:09:57;;;;;;;;;;;;;;;-155.54;100.00;57697.75;4999144;28;19925;-66
2024/01/31 12:12:22;;;;;;;;;;;;;;;-155.54;100.00;57697.75;4970829;28;20401;-66
2024/01/31 12:14:47;;;;;;;;;;;;;;;-155.54;100.00;57697.75;4981373;28;20036;-66
2024/01/31 12:17:23;;;;;;;;;;;;;;;-155.54;100.00;57697.75;4981475;28;19983;-66
2024/01/31 12:19:49;;;;;;;;;;;;;;;-155.54;100.00;57697.75;4999745;28;19921;-66
2024/01/31 12:22:17;;;;;;;;;;;;;;;-155.54;100.00;57697.75;4992507;28;20321;-66
2024/01/31 12:24:43;;;;;;;;;;;;;;;-155.54;100.00;57697.75;4997387;28;19926;-66
2024/01/31 12:27:08;;;;;;;;;;;;;;;-155.54;100.00;57697.75;4983603;28;20511;-66
2024/01/31 12:29:34;;;;;;;;;;;;;;;-155.54;100.00;57697.75;4999058;28;20023;-66
2024/01/31 12:31:59;;;;;;;;;;;;;;;-155.54;100.00;57697.75;4990761;28;19930;-66
2024/01/31 12:34:24;;;;;;;;;;;;;;;-155.54;100.00;57697.75;4997750;28;20678;-66
2024/01/31 12:36:49;;;;;;;;;;;;;;;-155.54;100.00;57697.75;4997537;28;19965;-66
2024/01/31 12:39:19;;;;;;;;;;;;;;;-155.54;100.00;57697.75;4996885;28;19987;-66
2024/01/31 12:41:45;;;;;;;;;;;;;;;-155.54;100.00;57697.75;4998440;28;20414;-65
2024/01/31 12:44:10;;;;;;;;;;;;;;;-155.54;100.00;57697.75;4991957;28;20319;-66
2024/01/31 12:46:35;;;;;;;;;;;;;;;-155.54;100.00;57697.75;4994721;28;20020;-66
2024/01/31 12:49:01;;;;;;;;;;;;;;;-155.54;100.00;57697.75;4998398;28;19925;-65
2024/01/31 12:51:26;;;;;;;;;;;;;;;-155.54;100.00;57697.75;4996454;28;19925;-66
2024/01/31 12:53:51;;;;;;;;;;;;;;;-155.54;100.00;57697.75;4996337;28;20088;-66
2024/01/31 12:56:16;;;;;;;;;;;;;;;-155.54;100.00;57697.75;4997945;28;20227;-66
2024/01/31 12:58:42;;;;;;;;;;;;;;;-155.54;100.00;57697.75;4995092;28;20601;-66
2024/01/31 13:01:07;;;;;;;;;;;;;;;-155.54;100.00;57697.75;4999220;28;19928;-66
2024/01/31 13:03:32;;;;;;;;;;;;;;;-155.54;100.00;57697.75;4993220;28;20028;-65
2024/01/31 13:05:58;;;;;;;;;;;;;;;-155.54;100.00;57697.75;4996059;28;20260;-65
2024/01/31 13:08:23;;;;;;;;;;;;;;;-155.54;100.00;57697.75;4997523;28;19929;-65
2024/01/31 13:10:48;;;;;;;;;;;;;;;-155.54;100.00;57697.75;4996657;28;20298;-66
2024/01/31 13:13:13;;;;;;;;;;;;;;;-155.54;100.00;57697.75;4988586;28;20527;-66
2024/01/31 13:15:39;;;;;;;;;;;;;;;-155.54;100.00;57697.75;4999968;28;19921;-66
2024/01/31 13:18:04;;;;;;;;;;;;;;;-155.54;100.00;57697.75;4993947;28;19930;-75
2024/01/31 13:20:29;;;;;;;;;;;;;;;-155.54;100.00;57697.75;5014224;28;19929;-75
2024/01/31 13:22:55;;;;;;;;;;;;;;;-155.54;100.00;57697.75;5013008;28;20187;-75
2024/01/31 13:25:20;;;;;;;;;;;;;;;-155.54;100.00;57697.75;5012992;28;19921;-76
2024/01/31 13:27:45;;;;;;;;;;;;;;;-155.54;100.00;57697.75;5013276;28;19944;-76
2024/01/31 13:30:11;;;;;;;;;;;;;;;-155.54;100.00;57697.75;5006633;28;20261;-68
2024/01/31 13:32:36;;;;;;;;;;;;;;;-155.54;100.00;57697.75;4993523;28;20316;-69
2024/01/31 13:35:01;;;;;;;;;;;;;;;-155.54;100.00;57697.75;4996909;28;20011;-68
2024/01/31 13:37:27;;;;;;;;;;;;;;;-155.54;100.00;57697.75;4995477;28;20060;-68
2024/01/31 13:39:52;;;;;;;;;;;;;;;-155.54;100.00;57697.75;4992951;28;20313;-69
2024/01/31 13:42:17;;;;;;;;;;;;;;;-155.54;100.00;57697.75;4992032;28;19961;-68
2024/01/31 13:44:42;;;;;;;;;;;;;;;-155.54;100.00;57697.75;4991235;28;19935;-67
2024/01/31 13:47:08;;;;;;;;;;;;;;;-155.54;100.00;57697.75;4989475;28;20279;-67
2024/01/31 13:49:33;;;;;;;;;;;;;;;-155.54;100.00;57697.75;5002795;28;19929;-75
2024/01/31 13:51:58;;;;;;;;;;;;;;;-155.54;100.00;57697.75;4991329;28;19930;-76
2024/01/31 13:54:24;;;;;;;;;;;;;;;-155.54;100.00;57697.75;4998571;28;20008;-78
2024/01/31 13:56:49;;;;;;;;;;;;;;;-155.54;100.00;57697.75;4995540;28;19961;-77
2024/01/31 13:59:14;;;;;;;;;;;;;;;-155.54;100.00;57697.75;4997441;28;19925;-77
2024/01/31 14:01:40;;;;;;;;;;;;;;;-155.54;100.00;57697.75;4997000;28;19949;-77
2024/01/31 14:04:06;;;;;;;;;;;;;;;-155.54;100.00;57697.75;4998970;28;19999;-77
2024/01/31 14:06:31;;;;;;;;;;;;;;;-155.54;100.00;57697.75;4982958;28;20000;-77
2024/01/31 14:08:57;;;;;;;;;;;;;;;-155.54;100.00;57697.75;4963995;28;19979;-77
2024/01/31 14:11:22;;;;;;;;;;;;;;;-155.54;100.00;57697.75;4991505;28;20068;-77
2024/01/31 14:13:48;;;;;;;;;;;;;;;-155.54;100.00;57697.75;4985465;28;20036;-77
2024/01/31 14:16:14;;;;;;;;;;;;;;;-155.54;100.00;57697.75;4987372;28;19964;-77
2024/01/31 14:18:39;;;;;;;;;;;;;;;-155.54;100.00;57697.75;4962229;28;19964;-77
2024/01/31 14:21:05;;;;;;;;;;;;;;;-155.54;100.00;57697.75;4972041;28;19958;-77
2024/01/31 14:23:30;;;;;;;;;;;;;;;-155.54;100.00;57697.75;4968990;28;19926;-77
2024/01/31 14:25:55;;;;;;;;;;;;;;;-155.54;100.00;57697.75;4978571;28;20626;-77
2024/01/31 14:28:20;;;;;;;;;;;;;;;-155.54;100.00;57697.75;4974558;28;20216;-77
2024/01/31 14:30:46;;;;;;;;;;;;;;;-155.54;100.00;57697.75;4942936;28;19922;-77
2024/01/31 14:33:11;;;;;;;;;;;;;;;-155.54;100.00;57697.75;4978711;28;19961;-77
2024/01/31 14:35:36;;;;;;;;;;;;;;;-155.54;100.00;57697.75;4969172;28;20421;-77
2024/01/31 14:38:02;;;;;;;;;;;;;;;-155.54;100.00;57697.75;4966851;28;19925;-77
2024/01/31 14:40:27;;;;;;;;;;;;;;;-155.54;100.00;57697.75;4968208;28;19960;-77
2024/01/31 14:42:52;;;;;;;;;;;;;;;-155.54;100.00;57697.75;4970182;28;20132;-77
2024/01/31 14:45:18;;;;;;;;;;;;;;;-155.54;100.00;57697.75;4967491;28;20501;-77
2024/01/31 14:47:43;;;;;;;;;;;;;;;-155.54;100.00;57697.75;4954284;28;19973;-77
2024/01/31 14:50:08;;;;;;;;;;;;;;;-155.54;100.00;57697.75;4948333;28;19965;-77
2024/01/31 14:52:34;;;;;;;;;;;;;;;-155.54;100.00;57697.75;4951203;28;19934;-77
2024/01/31 14:54:59;;;;;;;;;;;;;;;-155.54;100.00;57697.75;4970890;28;20061;-77
2024/01/31 14:57:24;;;;;;;;;;;;;;;-155.54;100.00;57697.75;4966778;28;20575;-77
2024/01/31 14:59:50;;;;;;;;;;;;;;;-155.54;100.00;57697.75;4967368;28;20055;-77
2024/01/31 15:02:15;;;;;;;;;;;;;;;-155.54;100.00;57697.75;4968563;28;19926;-77
2024/01/31 15:04:41;;;;;;;;;;;;;;;-155.54;100.00;57697.75;4971364;28;19921;-77
2024/01/31 15:07:06;;;;;;;;;;;;;;;-155.54;100.00;57697.75;4970015;28;19926;-77
2024/01/31 15:09:32;;;;;;;;;;;;;;;-155.54;100.00;57697.75;4969688;28;20028;-77
2024/01/31 15:11:58;;;;;;;;;;;;;;;-155.54;100.00;57697.75;4972592;28;19930;-77
2024/01/31 15:14:24;;;;;;;;;;;;;;;-155.54;100.00;57697.75;4953722;28;20045;-77
2024/01/31 15:16:49;;;;;;;;;;;;;;;-155.54;100.00;57697.75;4957671;28;20056;-77
2024/01/31 15:19:14;;;;;;;;;;;;;;;-155.54;100.00;57697.75;4989713;28;19930;-77
2024/01/31 15:21:39;;;;;;;;;;;;;;;-155.54;100.00;57697.75;4989454;28;20322;-77
2024/01/31 15:24:05;;;;;;;;;;;;;;;-155.54;100.00;57697.75;4990881;28;20002;-77
2024/01/31 15:26:30;;;;;;;;;;;;;;;-155.54;100.00;57697.75;4972512;28;19925;-77
2024/01/31 15:28:55;;;;;;;;;;;;;;;-155.54;100.00;57697.75;4987875;28;19937;-74
2024/01/31 15:31:21;;;;;;;;;;;;;;;-155.54;100.00;57697.75;4992573;28;20637;-74
2024/01/31 15:33:47;;;;;;;;;;;;;;;-155.54;100.00;57697.75;4987413;28;20619;-74
2024/01/31 15:36:12;;;;;;;;;;;;;;;-155.54;100.00;57697.75;4985784;28;19925;-74
2024/01/31 15:38:37;;;;;;;;;;;;;;;-155.54;100.00;57697.75;4988601;28;19929;-74
2024/01/31 15:41:03;;;;;;;;;;;;;;;-155.54;100.00;57697.75;4989880;28;20032;-73
2024/01/31 15:43:28;;;;;;;;;;;;;;;-155.54;100.00;57697.75;4989922;28;20071;-77
2024/01/31 15:45:54;;;;;;;;;;;;;;;-155.54;100.00;57697.75;4995420;28;20003;-77
2024/01/31 15:48:19;;;;;;;;;;;;;;;-155.54;100.00;57697.75;4976923;28;19969;-72
2024/01/31 15:50:44;;;;;;;;;;;;;;;-155.54;100.00;57697.75;4995676;28;19930;-77
2024/01/31 15:53:10;;;;;;;;;;;;;;;-155.54;100.00;57697.75;4993009;28;19961;-78
2024/01/31 15:55:37;;;;;;;;;;;;;;;-155.54;100.00;57697.75;4980899;28;20456;-78
2024/01/31 15:58:02;;;;;;;;;;;;;;;-155.54;100.00;57697.75;4980365;28;19929;-78
2024/01/31 16:00:28;;;;;;;;;;;;;;;-155.54;100.00;57697.75;4991445;28;20338;-77
2024/01/31 16:02:54;;;;;;;;;;;;;;;-155.54;100.00;57697.75;4990208;28;20016;-78
2024/01/31 16:05:19;;;;;;;;;;;;;;;-155.54;100.00;57697.75;4974252;28;20010;-77
2024/01/31 16:07:44;;;;;;;;;;;;;;;-155.54;100.00;57697.75;4978066;28;20668;-77
2024/01/31 16:10:10;;;;;;;;;;;;;;;-155.54;100.00;57697.75;4997293;28;19980;-77
2024/01/31 16:12:35;;;;;;;;;;;;;;;-155.54;100.00;57697.75;4979669;28;19933;-78
2024/01/31 16:15:01;;;;;;;;;;;;;;;-155.54;100.00;57697.75;4997901;28;20012;-78
2024/01/31 16:17:27;;;;;;;;;;;;;;;-155.54;100.00;57697.75;4993053;28;19933;-78
2024/01/31 16:19:52;;;;;;;;;;;;;;;-155.54;100.00;57697.75;4995186;28;19926;-78
2024/01/31 16:22:18;;;;;;;;;;;;;;;-155.54;100.00;57697.75;4989223;28;19925;-76
2024/01/31 16:24:44;;;;;;;;;;;;;;;-155.54;100.00;57697.75;4987355;28;19930;-77
2024/01/31 16:27:09;;;;;;;;;;;;;;;-155.54;100.00;57697.75;4975919;28;19914;-76
2024/01/31 16:29:34;;;;;;;;;;;;;;;-155.54;100.00;57697.75;4987988;28;19930;-77
2024/01/31 16:32:00;;;;;;;;;;;;;;;-155.54;100.00;57697.75;4989684;28;19929;-76
2024/01/31 16:34:25;;;;;;;;;;;;;;;-155.54;100.00;57697.75;4989146;28;19937;-76
2024/01/31 16:36:51;;;;;;;;;;;;;;;-155.54;100.00;57697.75;4992579;28;20384;-76
2024/01/31 16:39:17;;;;;;;;;;;;;;;-155.54;100.00;57697.75;4971417;28;20117;-76
2024/01/31 16:41:42;;;;;;;;;;;;;;;-155.54;100.00;57697.75;4996628;28;19925;-76
2024/01/31 16:44:07;;;;;;;;;;;;;;;-155.54;100.00;57697.75;4970569;28;19984;-76
2024/01/31 16:46:33;;;;;;;;;;;;;;;-155.54;100.00;57697.75;4969809;28;19929;-76
2024/01/31 16:48:58;;;;;;;;;;;;;;;-155.54;100.00;57697.75;4967942;28;19932;-76
2024/01/31 16:51:23;;;;;;;;;;;;;;;-155.54;100.00;57697.75;4990739;28;20584;-76
2024/01/31 16:53:49;;;;;;;;;;;;;;;-155.54;100.00;57697.75;4989481;28;19930;-77
2024/01/31 16:56:14;;;;;;;;;;;;;;;-155.54;100.00;57697.75;4998736;28;19925;-76
2024/01/31 16:58:39;;;;;;;;;;;;;;;-155.54;100.00;57697.75;4997729;28;20201;-76
2024/01/31 17:01:05;;;;;;;;;;;;;;;-155.54;100.00;57697.75;4998677;28;20859;-77
2024/01/31 17:03:30;;;;;;;;;;;;;;;-155.54;100.00;57697.75;4996476;28;19934;-77
2024/01/31 17:05:55;;;;;;;;;;;;;;;-155.54;100.00;57697.75;4995700;28;20251;-77
2024/01/31 17:08:21;;;;;;;;;;;;;;;-155.54;100.00;57697.75;4992574;28;19932;-76
2024/01/31 17:10:48;;;;;;;;;;;;;;;-155.54;100.00;57697.75;4988345;28;19976;-76
2024/01/31 17:13:15;;;;;;;;;;;;;;;-155.54;100.00;57697.75;4986817;28;19977;-76
2024/01/31 17:15:40;;;;;;;;;;;;;;;-155.54;100.00;57697.75;4989349;28;19996;-76
2024/01/31 17:18:06;;;;;;;;;;;;;;;-155.54;100.00;57697.75;4987379;28;19969;-77
2024/01/31 17:20:31;;;;;;;;;;;;;;;-155.54;100.00;57697.75;4970399;28;19922;-77
2024/01/31 17:22:56;;;;;;;;;;;;;;;-155.54;100.00;57697.75;4987579;28;20429;-76
2024/01/31 17:25:23;;;;;;;;;;;;;;;-155.54;100.00;57697.75;4970469;28;19934;-76
2024/01/31 17:27:48;;;;;;;;;;;;;;;-155.54;100.00;57697.75;4962158;28;19925;-77
2024/01/31 17:30:14;;;;;;;;;;;;;;;-155.54;100.00;57697.75;4987479;28;20441;-76
2024/01/31 17:32:39;;;;;;;;;;;;;;;-155.54;100.00;57697.75;4992641;28;20434;-77